Main page
Satellite images 15-day forecastsClimateMarine weather Cyclones Lightning AirportsFAQ Newsletter About
Weather : Europe Africa North America South America Asia Australia-Oceania Others
Languages Contact

Longyearbyen, Norway

Svalbard

latitude: 78-15N, longitude: 015-28E, elevation: 2 m


METAR: ENSB 221850Z VRB02KT 9999 FEW009 SCT012 BKN040 07/04 Q1018 RMK WIND 1400FT VRB02KT
short-TAF: out of date (50049 hours)
long-TAF: ENSB 221700Z 2218/2318 VRB05KT 9999 BKN018 TEMPO 2300/2318 23012KT -RA BKN005

Time: 21:04 (19:04 UTC)

Current weather observation

The report was made 14 minutes ago, at 18:50 UTC  
Wind 02 kt from variable directions
Temperature 7°C
Humidity 81%
Pressure 1018 hPa
Visibility 10 km or more
Few clouds at a height of 900 ft
Scattered clouds at a height of 1200 ft
Broken clouds at a height of 4000 ft

Change units

Forecast

The report was made 1 hour and 7 minutes ago, at 17:57 UTC  
Forecast valid from 22 at 18 UTC to 23 at 18 UTC
Wind 05 kt from variable directions
Visibility 10 km or more
Broken clouds at a height of 1800 ft
Temporary
from 23 at 00 UTC to 23 at 18 UTC
Wind 12 kt from the Southwest
Broken clouds at a height of 500 ft
light rain
The information on this site is subject to a disclaimer
Weather : Europe Africa North America South America Asia Australia-Oceania Others
Satellite images 15-day forecastsClimateMarine weather Cyclones Lightning AirportsFAQ Languages Contact Newsletter About